createdAt,value
2018-06-11T00:01:33.656Z,16.30
2018-06-11T00:04:02.892Z,16.20
2018-06-11T00:06:31.650Z,16.20
2018-06-11T00:09:00.438Z,16.20
2018-06-11T00:11:29.350Z,16.20
2018-06-11T00:13:58.034Z,16.10
2018-06-11T00:16:30.240Z,16.00
2018-06-11T00:18:59.052Z,15.90
2018-06-11T00:21:35.690Z,15.90
2018-06-11T00:24:04.407Z,15.80
2018-06-11T00:26:33.559Z,15.70
2018-06-11T00:29:07.024Z,15.60
2018-06-11T00:31:35.719Z,15.50
2018-06-11T00:34:04.532Z,15.40
2018-06-11T00:36:38.565Z,15.30
2018-06-11T00:39:08.196Z,15.30
2018-06-11T00:41:36.996Z,15.20
2018-06-11T00:44:05.697Z,15.10
2018-06-11T00:46:38.144Z,15.10
2018-06-11T00:49:06.891Z,15.00
2018-06-11T00:51:35.661Z,15.00
2018-06-11T00:54:04.641Z,14.90
2018-06-11T00:56:33.384Z,14.80
2018-06-11T00:59:02.159Z,14.70
2018-06-11T01:01:30.869Z,14.70
2018-06-11T01:03:59.609Z,14.60
2018-06-11T01:06:29.584Z,14.60
2018-06-11T01:08:58.281Z,14.60
2018-06-11T01:11:28.042Z,14.50
2018-06-11T01:13:56.830Z,14.50
2018-06-11T01:16:25.634Z,14.40
2018-06-11T01:19:01.656Z,14.40
2018-06-11T01:21:30.396Z,14.40
2018-06-11T01:24:05.124Z,14.40
2018-06-11T01:26:33.929Z,14.30
2018-06-11T01:29:02.742Z,14.30
2018-06-11T01:31:33.341Z,14.20
2018-06-11T01:34:02.100Z,14.20
2018-06-11T01:36:30.840Z,14.20
2018-06-11T01:38:59.575Z,14.10
2018-06-11T01:41:32.048Z,14.10
2018-06-11T01:44:00.870Z,14.10
2018-06-11T01:46:29.560Z,14.00
2018-06-11T01:49:14.868Z,14.00
2018-06-11T01:51:43.610Z,13.90
2018-06-11T01:54:12.316Z,13.90
2018-06-11T01:56:42.051Z,13.90
2018-06-11T01:59:10.780Z,13.90
2018-06-11T02:01:42.864Z,14.00
2018-06-11T02:04:24.046Z,14.10
2018-06-11T02:06:52.708Z,14.10
2018-06-11T02:09:31.320Z,14.30
2018-06-11T02:12:00.076Z,14.40
2018-06-11T02:14:28.861Z,14.50
2018-06-11T02:16:59.635Z,14.50
2018-06-11T02:19:36.576Z,14.60
2018-06-11T02:22:05.319Z,14.70
2018-06-11T02:24:36.043Z,14.70
2018-06-11T02:27:04.808Z,14.70
2018-06-11T02:29:39.245Z,14.80
2018-06-11T02:32:18.376Z,14.80
2018-06-11T02:34:47.105Z,14.80
2018-06-11T02:37:15.805Z,14.90
2018-06-11T02:39:47.788Z,14.90
2018-06-11T02:42:16.592Z,14.90
2018-06-11T02:44:46.708Z,14.90
2018-06-11T02:47:15.454Z,15.00
2018-06-11T02:49:44.235Z,14.90
2018-06-11T02:52:13.016Z,15.00
2018-06-11T02:54:43.766Z,15.00
2018-06-11T02:57:13.403Z,15.00
2018-06-11T02:59:42.193Z,15.10
2018-06-11T03:02:17.289Z,15.10
2018-06-11T03:04:46.036Z,15.10
2018-06-11T03:07:14.724Z,15.10
2018-06-11T03:09:43.465Z,15.10
2018-06-11T03:12:12.448Z,15.10
2018-06-11T03:14:47.055Z,15.10
2018-06-11T03:17:19.466Z,15.10
2018-06-11T03:19:49.194Z,15.20
2018-06-11T03:22:17.985Z,15.20
2018-06-11T03:24:46.807Z,15.20
2018-06-11T03:27:16.624Z,15.20
2018-06-11T03:29:53.092Z,15.20
2018-06-11T03:32:22.512Z,15.20
2018-06-11T03:34:51.428Z,15.20
2018-06-11T03:37:30.617Z,15.20
2018-06-11T03:39:59.340Z,15.10
2018-06-11T03:42:28.041Z,15.10
2018-06-11T03:44:56.732Z,15.10
2018-06-11T03:47:25.547Z,15.10
2018-06-11T03:49:54.328Z,15.00
2018-06-11T03:52:26.089Z,15.00
2018-06-11T03:55:18.318Z,15.00
2018-06-11T03:57:46.995Z,15.00
2018-06-11T04:00:16.833Z,15.00
2018-06-11T04:02:46.173Z,15.00
2018-06-11T04:05:14.920Z,15.10
2018-06-11T04:07:47.597Z,15.10
2018-06-11T04:10:17.663Z,15.10
2018-06-11T04:12:47.775Z,15.10
2018-06-11T04:15:17.651Z,15.10
2018-06-11T04:17:46.913Z,15.20
2018-06-11T04:20:15.738Z,15.20
2018-06-11T04:22:46.492Z,15.20
2018-06-11T04:25:26.608Z,15.30
2018-06-11T04:27:55.428Z,15.30
2018-06-11T04:30:24.242Z,15.30
2018-06-11T04:35:52.567Z,15.40
2018-06-11T04:38:21.376Z,15.50
2018-06-11T04:40:52.125Z,15.60
2018-06-11T04:43:27.097Z,15.60
2018-06-11T04:46:04.025Z,15.60
2018-06-11T04:48:34.579Z,15.70
2018-06-11T04:51:03.960Z,15.80
2018-06-11T04:53:33.692Z,15.80
2018-06-11T04:56:02.562Z,15.80
2018-06-11T04:58:35.210Z,15.90
2018-06-11T05:01:04.844Z,16.00
2018-06-11T05:03:46.575Z,16.10
2018-06-11T05:06:15.415Z,16.20
2018-06-11T05:08:44.171Z,16.20
2018-06-11T05:11:12.935Z,16.20
2018-06-11T05:13:43.035Z,16.20
2018-06-11T05:16:12.410Z,16.30
2018-06-11T05:18:41.238Z,16.20
2018-06-11T05:21:09.996Z,16.20
2018-06-11T05:23:38.808Z,16.40
2018-06-11T05:26:07.599Z,16.40
2018-06-11T05:28:36.509Z,16.40
2018-06-11T05:31:05.261Z,16.40
2018-06-11T05:33:34.134Z,16.30
2018-06-11T05:38:31.417Z,16.50
2018-06-11T05:41:00.229Z,16.70
2018-06-11T05:43:28.985Z,16.90
2018-06-11T05:45:57.882Z,17.10
2018-06-11T05:48:26.707Z,17.10
2018-06-11T05:50:55.437Z,17.30
2018-06-11T05:53:31.431Z,17.20
2018-06-11T05:56:00.303Z,17.10
2018-06-11T05:58:29.284Z,17.10
2018-06-11T06:00:58.014Z,17.10
2018-06-11T06:05:55.262Z,17.00
2018-06-11T06:08:24.088Z,16.90
2018-06-11T06:10:53.777Z,17.00
2018-06-11T06:13:22.697Z,17.00
2018-06-11T06:15:51.589Z,17.00
2018-06-11T06:18:20.674Z,17.00
2018-06-11T06:20:49.482Z,16.90
2018-06-11T06:23:18.389Z,17.00
2018-06-11T06:25:48.199Z,17.10
2018-06-11T06:28:19.134Z,17.10
2018-06-11T06:30:47.976Z,17.10
2018-06-11T06:33:18.102Z,17.10
2018-06-11T06:35:48.105Z,17.30
2018-06-11T06:38:17.704Z,17.30
2018-06-11T06:43:16.220Z,17.70
2018-06-11T06:45:47.172Z,17.70
2018-06-11T06:48:17.457Z,17.40
2018-06-11T06:50:46.360Z,17.20
2018-06-11T06:53:15.224Z,17.10
2018-06-11T06:55:44.139Z,17.10
2018-06-11T06:58:14.041Z,17.30
2018-06-11T07:00:42.796Z,17.50
2018-06-11T07:03:11.629Z,18.00
2018-06-11T07:05:42.185Z,18.50
2018-06-11T07:08:11.018Z,19.00
2018-06-11T07:10:40.303Z,19.00
2018-06-11T07:13:09.660Z,19.10
2018-06-11T07:15:39.415Z,19.20
2018-06-11T07:18:08.210Z,19.40
2018-06-11T07:20:37.140Z,19.30
2018-06-11T07:23:05.854Z,19.00
2018-06-11T07:25:34.618Z,19.20
2018-06-11T07:28:04.598Z,19.60
2018-06-11T07:30:34.402Z,19.60
2018-06-11T07:33:03.165Z,19.50
2018-06-11T07:35:35.903Z,19.50
2018-06-11T07:38:04.857Z,19.30
2018-06-11T07:40:33.714Z,19.30
2018-06-11T07:43:04.964Z,19.40
2018-06-11T07:45:34.171Z,19.40
2018-06-11T07:48:03.102Z,19.40
2018-06-11T07:50:31.809Z,19.40
2018-06-11T07:53:00.666Z,19.60
2018-06-11T07:55:29.458Z,19.50
2018-06-11T07:57:58.239Z,19.40
2018-06-11T08:00:28.249Z,19.20
2018-06-11T08:02:57.021Z,19.40
2018-06-11T08:05:25.868Z,19.30
2018-06-11T08:07:54.754Z,19.20
2018-06-11T08:10:23.492Z,19.10
2018-06-11T08:12:52.237Z,19.00
2018-06-11T08:15:21.297Z,18.90
2018-06-11T08:17:50.115Z,19.10
2018-06-11T08:20:18.838Z,18.90
2018-06-11T08:22:47.697Z,18.90
2018-06-11T08:25:16.471Z,19.10
2018-06-11T08:27:45.310Z,19.60
2018-06-11T08:30:14.058Z,19.80
2018-06-11T08:32:42.877Z,19.80
2018-06-11T08:35:11.705Z,19.70
2018-06-11T08:37:41.671Z,19.60
2018-06-11T08:40:10.491Z,19.50
2018-06-11T08:42:40.528Z,19.60
2018-06-11T08:45:10.505Z,19.70
2018-06-11T08:47:39.258Z,20.00
2018-06-11T08:50:08.520Z,19.90
2018-06-11T08:52:40.593Z,19.80
2018-06-11T08:57:37.985Z,19.80
2018-06-11T09:00:07.327Z,19.80
2018-06-11T09:02:36.098Z,19.80
2018-06-11T09:05:05.199Z,19.70
2018-06-11T09:07:34.969Z,19.70
2018-06-11T09:10:04.739Z,19.90
2018-06-11T09:12:33.587Z,20.10
2018-06-11T09:15:02.279Z,20.10
2018-06-11T09:17:31.123Z,20.10
2018-06-11T09:20:00.018Z,20.20
2018-06-11T09:22:28.818Z,20.30
2018-06-11T09:24:58.103Z,20.60
2018-06-11T09:27:29.092Z,20.60
2018-06-11T09:29:57.891Z,20.70
2018-06-11T09:32:26.666Z,20.50
2018-06-11T09:34:55.421Z,20.50
2018-06-11T09:37:24.207Z,20.30
2018-06-11T09:39:55.055Z,20.10
2018-06-11T09:42:23.890Z,19.70
2018-06-11T09:44:52.784Z,19.70
2018-06-11T09:47:21.675Z,20.00
2018-06-11T09:49:53.460Z,20.30
2018-06-11T09:52:23.858Z,20.30
2018-06-11T09:54:52.917Z,20.40
2018-06-11T09:57:24.092Z,20.30
2018-06-11T09:59:53.043Z,20.10
2018-06-11T10:02:22.076Z,20.10
2018-06-11T10:04:51.046Z,20.20
2018-06-11T10:07:20.251Z,20.30
2018-06-11T10:09:49.773Z,20.20
2018-06-11T10:12:19.163Z,20.40
2018-06-11T10:14:51.873Z,20.60
2018-06-11T10:17:21.787Z,20.80
2018-06-11T10:19:50.623Z,20.80
2018-06-11T10:22:19.477Z,20.60
2018-06-11T10:24:48.504Z,20.50
2018-06-11T10:27:17.429Z,20.60
2018-06-11T10:29:46.307Z,21.00
2018-06-11T10:32:16.273Z,21.10
2018-06-11T10:34:45.076Z,21.20
2018-06-11T10:37:13.819Z,21.10
2018-06-11T10:39:44.031Z,20.90
2018-06-11T10:42:14.939Z,20.60
2018-06-11T10:44:45.709Z,20.30
2018-06-11T10:47:14.749Z,20.40
2018-06-11T10:49:43.651Z,20.80
2018-06-11T10:52:13.549Z,21.10
2018-06-11T10:54:42.463Z,21.40
2018-06-11T10:57:11.229Z,21.50
2018-06-11T10:59:46.076Z,21.50
2018-06-11T11:02:16.222Z,21.50
2018-06-11T11:04:46.085Z,21.50
2018-06-11T11:07:15.007Z,21.70
2018-06-11T11:09:44.028Z,21.50
2018-06-11T11:12:12.897Z,21.40
2018-06-11T11:14:43.714Z,21.50
2018-06-11T11:17:12.451Z,21.50
2018-06-11T11:19:41.323Z,21.30
2018-06-11T11:22:11.124Z,20.80
2018-06-11T11:24:42.582Z,20.40
2018-06-11T11:27:11.445Z,20.10
2018-06-11T11:29:46.547Z,20.30
2018-06-11T11:34:47.719Z,20.60
2018-06-11T11:37:16.556Z,20.40
2018-06-11T11:39:46.834Z,20.60
2018-06-11T11:42:15.646Z,20.20
2018-06-11T11:44:48.162Z,20.00
2018-06-11T11:47:17.413Z,20.10
2018-06-11T11:49:47.296Z,20.40
2018-06-11T11:52:16.750Z,20.80
2018-06-11T11:54:51.772Z,20.60
2018-06-11T11:57:22.732Z,20.40
2018-06-11T11:59:52.615Z,20.60
2018-06-11T12:02:24.367Z,20.80
2018-06-11T12:04:53.211Z,20.80
2018-06-11T12:07:24.722Z,20.80
2018-06-11T12:09:56.925Z,20.80
2018-06-11T12:12:25.689Z,20.80
2018-06-11T12:14:54.510Z,20.50
2018-06-11T12:17:24.402Z,20.20
2018-06-11T12:19:53.302Z,20.00
2018-06-11T12:22:22.112Z,20.30
2018-06-11T12:24:51.033Z,20.40
2018-06-11T12:27:19.820Z,20.70
2018-06-11T12:29:53.391Z,20.70
2018-06-11T12:32:22.239Z,20.60
2018-06-11T12:34:51.098Z,20.50
2018-06-11T12:37:19.889Z,20.50
2018-06-11T12:42:18.130Z,20.30
2018-06-11T12:44:46.873Z,20.30
2018-06-11T12:47:16.719Z,20.30
2018-06-11T12:49:46.214Z,20.50
2018-06-11T12:52:15.055Z,20.40
2018-06-11T12:54:47.888Z,20.30
2018-06-11T12:57:16.768Z,20.30
2018-06-11T12:59:45.531Z,20.20
2018-06-11T13:02:19.940Z,20.40
2018-06-11T13:04:48.738Z,20.50
2018-06-11T13:07:17.796Z,20.80
2018-06-11T13:09:46.565Z,20.70
2018-06-11T13:12:17.436Z,20.50
2018-06-11T13:14:46.195Z,20.60
2018-06-11T13:17:17.073Z,20.70
2018-06-11T13:19:45.872Z,20.50
2018-06-11T13:22:14.652Z,20.50
2018-06-11T13:24:45.113Z,20.40
2018-06-11T13:27:15.103Z,20.30
2018-06-11T13:29:43.884Z,20.30
2018-06-11T13:32:18.652Z,20.20
2018-06-11T13:34:49.771Z,20.20
2018-06-11T13:37:18.648Z,20.20
2018-06-11T13:39:47.953Z,20.20
2018-06-11T13:42:17.751Z,20.00
2018-06-11T13:44:47.822Z,20.10
2018-06-11T13:47:16.621Z,20.10
2018-06-11T13:49:45.488Z,20.40
2018-06-11T13:52:14.445Z,20.60
2018-06-11T13:54:43.293Z,20.50
2018-06-11T13:57:15.561Z,20.50
2018-06-11T13:59:44.776Z,20.50
2018-06-11T14:02:13.587Z,20.50
2018-06-11T14:04:42.646Z,20.30
2018-06-11T14:07:11.497Z,20.20
2018-06-11T14:09:42.663Z,20.20
2018-06-11T14:12:12.678Z,20.10
2018-06-11T14:14:41.479Z,20.10
2018-06-11T14:17:10.304Z,20.10
2018-06-11T14:22:11.246Z,20.20
2018-06-11T14:24:40.166Z,20.50
2018-06-11T14:27:08.933Z,20.50
2018-06-11T14:29:37.803Z,20.50
2018-06-11T14:32:06.637Z,20.60
2018-06-11T14:34:39.096Z,20.60
2018-06-11T14:37:09.265Z,20.30
2018-06-11T14:39:38.082Z,20.20
2018-06-11T14:42:06.847Z,20.00
2018-06-11T14:44:39.242Z,20.00
2018-06-11T14:47:08.221Z,20.00
2018-06-11T14:49:37.091Z,19.90
2018-06-11T14:52:13.583Z,19.90
2018-06-11T14:54:44.469Z,20.00
2018-06-11T14:57:19.404Z,19.80
2018-06-11T14:59:53.428Z,19.90
2018-06-11T15:02:22.437Z,19.90
2018-06-11T15:04:51.299Z,19.70
2018-06-11T15:07:20.306Z,19.60
2018-06-11T15:09:50.772Z,19.40
2018-06-11T15:12:19.788Z,19.40
2018-06-11T15:14:48.654Z,19.50
2018-06-11T15:17:18.540Z,19.50
2018-06-11T15:19:53.769Z,19.60
2018-06-11T15:22:22.599Z,19.60
2018-06-11T15:24:51.521Z,19.60
2018-06-11T15:27:20.363Z,19.70
2018-06-11T15:29:49.193Z,19.70
2018-06-11T15:32:18.094Z,19.70
2018-06-11T15:34:52.397Z,19.70
2018-06-11T15:37:21.360Z,19.50
2018-06-11T15:39:50.160Z,19.70
2018-06-11T15:42:19.023Z,19.70
2018-06-11T15:44:48.036Z,19.60
2018-06-11T15:47:17.662Z,19.70
2018-06-11T15:49:49.017Z,19.70
2018-06-11T15:52:18.868Z,19.80
2018-06-11T15:54:48.764Z,19.80
2018-06-11T15:57:17.877Z,19.60
2018-06-11T15:59:47.365Z,19.70
2018-06-11T16:02:16.150Z,19.90
2018-06-11T16:04:48.636Z,19.80
2018-06-11T16:07:17.637Z,19.80
2018-06-11T16:09:48.604Z,20.10
2018-06-11T16:12:18.430Z,20.00
2018-06-11T16:14:48.895Z,19.90
2018-06-11T16:17:17.874Z,19.90
2018-06-11T16:19:49.388Z,20.30
2018-06-11T16:22:18.461Z,20.30
2018-06-11T16:24:47.305Z,20.30
2018-06-11T16:27:18.390Z,20.40
2018-06-11T16:29:48.186Z,20.60
2018-06-11T16:32:17.513Z,20.70
2018-06-11T16:34:49.249Z,20.70
2018-06-11T16:37:18.220Z,20.80
2018-06-11T16:39:47.494Z,20.80
2018-06-11T16:42:16.323Z,20.20
2018-06-11T16:44:45.164Z,20.10
2018-06-11T16:47:15.044Z,20.20
2018-06-11T16:49:48.812Z,20.40
2018-06-11T16:52:20.122Z,20.60
2018-06-11T16:54:49.521Z,20.40
2018-06-11T16:57:20.634Z,20.70
2018-06-11T16:59:52.631Z,20.80
2018-06-11T17:02:23.058Z,20.80
2018-06-11T17:04:51.813Z,20.70
2018-06-11T17:07:20.643Z,20.70
2018-06-11T17:09:49.502Z,20.60
2018-06-11T17:12:18.293Z,20.40
2018-06-11T17:14:47.146Z,20.60
2018-06-11T17:17:16.926Z,20.90
2018-06-11T17:19:46.003Z,20.60
2018-06-11T17:22:14.806Z,20.40
2018-06-11T17:24:44.635Z,20.30
2018-06-11T17:27:13.907Z,20.00
2018-06-11T17:29:48.256Z,20.00
2018-06-11T17:32:17.102Z,20.10
2018-06-11T17:34:45.921Z,20.10
2018-06-11T17:37:15.999Z,20.00
2018-06-11T17:39:47.930Z,19.70
2018-06-11T17:42:16.849Z,19.70
2018-06-11T17:44:45.614Z,20.00
2018-06-11T17:47:17.926Z,20.00
2018-06-11T17:49:46.854Z,19.90
2018-06-11T17:52:15.698Z,19.60
2018-06-11T17:54:48.604Z,19.50
2018-06-11T17:57:17.469Z,19.30
2018-06-11T17:59:46.396Z,19.20
2018-06-11T18:02:23.556Z,18.50
2018-06-11T18:04:53.388Z,18.50
2018-06-11T18:07:22.563Z,18.50
2018-06-11T18:09:51.498Z,18.60
2018-06-11T18:12:20.258Z,18.70
2018-06-11T18:14:51.082Z,18.80
2018-06-11T18:17:19.939Z,18.70
2018-06-11T18:19:52.498Z,18.70
2018-06-11T18:22:21.660Z,18.80
2018-06-11T18:24:50.462Z,18.70
2018-06-11T18:27:19.186Z,18.60
2018-06-11T18:29:58.274Z,18.50
2018-06-11T18:32:27.126Z,18.50
2018-06-11T18:34:55.898Z,18.60
2018-06-11T18:37:24.695Z,18.60
2018-06-11T18:39:53.476Z,18.40
2018-06-11T18:42:22.329Z,18.30
2018-06-11T18:44:51.136Z,18.10
2018-06-11T18:47:20.208Z,18.10
2018-06-11T18:49:49.055Z,17.80
2018-06-11T18:54:48.338Z,17.10
2018-06-11T18:57:17.068Z,16.90
2018-06-11T18:59:45.945Z,16.70
2018-06-11T19:02:15.752Z,16.50
2018-06-11T19:04:44.617Z,16.40
2018-06-11T19:07:18.649Z,16.40
2018-06-11T19:09:47.405Z,16.40
2018-06-11T19:12:16.211Z,16.30
2018-06-11T19:14:46.015Z,16.20
2018-06-11T19:17:15.439Z,16.10
2018-06-11T19:19:44.226Z,16.10
2018-06-11T19:22:14.199Z,16.10
2018-06-11T19:24:42.966Z,16.00
2018-06-11T19:27:11.778Z,16.00
2018-06-11T19:29:41.607Z,16.00
2018-06-11T19:32:10.373Z,15.90
2018-06-11T19:34:44.547Z,16.00
2018-06-11T19:37:18.231Z,16.10
2018-06-11T19:39:47.016Z,16.10
2018-06-11T19:42:15.847Z,16.00
2018-06-11T19:44:44.635Z,16.00
2018-06-11T19:47:13.511Z,16.10
2018-06-11T19:49:42.283Z,16.00
2018-06-11T19:52:11.643Z,16.00
2018-06-11T19:54:40.478Z,16.00
2018-06-11T19:57:09.263Z,15.90
2018-06-11T19:59:38.047Z,15.80
2018-06-11T20:02:06.842Z,15.80
2018-06-11T20:04:39.854Z,15.80
2018-06-11T20:07:08.699Z,15.80
2018-06-11T20:09:37.445Z,15.80
2018-06-11T20:12:06.287Z,15.70
2018-06-11T20:14:35.243Z,15.70
2018-06-11T20:17:09.687Z,15.70
2018-06-11T20:19:38.696Z,15.70
2018-06-11T20:22:11.033Z,15.70
2018-06-11T20:24:40.882Z,15.80
2018-06-11T20:27:24.603Z,15.80
2018-06-11T20:29:53.290Z,15.90
2018-06-11T20:35:00.791Z,15.90
2018-06-11T20:37:29.573Z,15.80
2018-06-11T20:39:58.498Z,15.80
2018-06-11T20:42:32.053Z,15.90
2018-06-11T20:45:01.820Z,15.90
2018-06-11T20:47:31.674Z,15.90
2018-06-11T20:50:00.433Z,15.90
2018-06-11T20:52:30.659Z,15.90
2018-06-11T20:54:59.508Z,15.90
2018-06-11T20:57:28.271Z,15.90
2018-06-11T20:59:57.123Z,15.90
2018-06-11T21:02:26.895Z,15.80
2018-06-11T21:05:00.081Z,15.70
2018-06-11T21:07:28.880Z,15.70
2018-06-11T21:09:57.888Z,15.70
2018-06-11T21:12:27.340Z,15.60
2018-06-11T21:14:57.148Z,15.50
2018-06-11T21:17:25.826Z,15.40
2018-06-11T21:19:54.625Z,15.30
2018-06-11T21:22:23.338Z,15.40
2018-06-11T21:24:53.160Z,15.40
2018-06-11T21:27:29.509Z,15.30
2018-06-11T21:29:59.291Z,15.20
2018-06-11T21:32:27.987Z,15.30
2018-06-11T21:35:00.683Z,15.30
2018-06-11T21:37:31.592Z,15.30
2018-06-11T21:40:00.290Z,15.30
2018-06-11T21:42:29.003Z,15.30
2018-06-11T21:44:58.811Z,15.40
2018-06-11T21:47:31.085Z,15.40
2018-06-11T21:49:59.806Z,15.30
2018-06-11T21:52:28.516Z,15.30
2018-06-11T21:54:58.256Z,15.30
2018-06-11T21:57:31.735Z,15.30
2018-06-11T22:00:00.519Z,15.30
2018-06-11T22:02:29.665Z,15.20
2018-06-11T22:04:58.437Z,15.20
2018-06-11T22:07:29.211Z,15.30
2018-06-11T22:09:58.011Z,15.30
2018-06-11T22:12:26.719Z,15.30
2018-06-11T22:14:55.504Z,15.30
2018-06-11T22:17:24.295Z,15.30
2018-06-11T22:19:53.106Z,15.30
2018-06-11T22:22:21.801Z,15.40
2018-06-11T22:24:50.632Z,15.30
2018-06-11T22:27:21.477Z,15.30
2018-06-11T22:29:50.245Z,15.20
2018-06-11T22:32:19.049Z,15.30
2018-06-11T22:34:47.889Z,15.30
2018-06-11T22:37:19.134Z,15.30
2018-06-11T22:40:05.548Z,15.30
2018-06-11T22:42:34.324Z,15.20
2018-06-11T22:45:04.169Z,15.10
2018-06-11T22:47:46.908Z,15.20
2018-06-11T22:50:16.723Z,15.20
2018-06-11T22:52:46.573Z,15.20
2018-06-11T22:57:47.992Z,15.00
2018-06-11T23:00:27.345Z,15.00
2018-06-11T23:02:58.229Z,14.90
2018-06-11T23:05:28.058Z,14.90
2018-06-11T23:07:57.907Z,14.90
2018-06-11T23:10:26.650Z,14.90
2018-06-11T23:13:14.742Z,14.90
2018-06-11T23:15:44.521Z,14.90
2018-06-11T23:18:18.858Z,14.80
2018-06-11T23:20:47.872Z,14.70
2018-06-11T23:23:16.648Z,14.70
2018-06-11T23:25:45.470Z,14.70
2018-06-11T23:28:23.565Z,14.80
2018-06-11T23:30:52.280Z,14.80
2018-06-11T23:33:21.152Z,14.80
2018-06-11T23:35:49.913Z,14.80
2018-06-11T23:38:18.987Z,14.80
2018-06-11T23:40:47.912Z,14.80
2018-06-11T23:43:16.702Z,14.80
2018-06-11T23:45:45.403Z,14.80
2018-06-11T23:48:19.208Z,14.80
2018-06-11T23:50:48.084Z,14.80
2018-06-11T23:53:16.885Z,14.70
2018-06-11T23:55:45.584Z,14.70
2018-06-11T23:58:14.335Z,14.80
